createdAt,value
2019-03-24T00:00:02.321Z,4.22
2019-03-24T00:04:12.560Z,3.65
2019-03-24T00:08:20.795Z,3.59
2019-03-24T00:12:29.326Z,4.10
2019-03-24T00:16:37.663Z,4.18
2019-03-24T00:20:45.976Z,3.22
2019-03-24T00:24:54.423Z,2.98
2019-03-24T00:29:02.611Z,3.48
2019-03-24T00:33:11.349Z,4.00
2019-03-24T00:37:20.179Z,3.70
2019-03-24T00:41:28.425Z,3.86
2019-03-24T00:45:37.332Z,4.02
2019-03-24T00:49:45.763Z,3.83
2019-03-24T00:53:53.979Z,4.21
2019-03-24T00:58:02.316Z,4.26
2019-03-24T01:02:10.934Z,4.28
2019-03-24T01:06:19.269Z,4.28
2019-03-24T01:10:28.207Z,4.13
2019-03-24T01:14:36.519Z,3.97
2019-03-24T01:18:44.965Z,4.22
2019-03-24T01:22:53.574Z,4.32
2019-03-24T01:27:02.432Z,4.21
2019-03-24T01:31:10.637Z,4.31
2019-03-24T01:35:19.239Z,4.32
2019-03-24T01:39:27.685Z,4.13
2019-03-24T01:43:36.203Z,4.22
2019-03-24T01:47:44.537Z,4.22
2019-03-24T01:51:52.955Z,4.26
2019-03-24T01:56:01.890Z,4.29
2019-03-24T02:00:10.530Z,4.24
2019-03-24T02:04:18.836Z,3.95
2019-03-24T02:08:27.674Z,3.52
2019-03-24T02:12:36.382Z,3.53
2019-03-24T02:16:44.631Z,3.82
2019-03-24T02:20:53.242Z,3.78
2019-03-24T02:25:01.492Z,3.63
2019-03-24T02:29:09.809Z,3.70
2019-03-24T02:33:18.325Z,3.94
2019-03-24T02:37:26.544Z,4.02
2019-03-24T02:41:35.382Z,3.92
2019-03-24T02:45:43.789Z,4.09
2019-03-24T02:49:52.731Z,4.07
2019-03-24T02:54:01.375Z,4.11
2019-03-24T02:58:10.329Z,4.08
2019-03-24T03:02:18.543Z,4.08
2019-03-24T03:06:27.348Z,4.03
2019-03-24T03:10:36.180Z,3.98
2019-03-24T03:14:44.387Z,4.00
2019-03-24T03:18:52.842Z,4.05
2019-03-24T03:23:01.075Z,3.92
2019-03-24T03:27:09.368Z,3.90
2019-03-24T03:31:17.895Z,3.59
2019-03-24T03:35:26.138Z,3.88
2019-03-24T03:39:34.770Z,3.91
2019-03-24T03:43:43.291Z,3.93
2019-03-24T03:47:51.613Z,3.85
2019-03-24T03:52:00.124Z,3.90
2019-03-24T03:56:08.867Z,3.78
2019-03-24T04:00:18.813Z,3.91
2019-03-24T04:04:27.137Z,3.67
2019-03-24T04:08:36.155Z,3.72
2019-03-24T04:12:44.710Z,3.87
2019-03-24T04:17:06.181Z,3.80
2019-03-24T04:21:03.292Z,3.62
2019-03-24T04:25:11.729Z,3.72
2019-03-24T04:29:20.868Z,3.64
2019-03-24T04:33:29.285Z,3.72
2019-03-24T04:37:39.067Z,3.66
2019-03-24T04:41:47.471Z,3.75
2019-03-24T04:45:56.099Z,3.83
2019-03-24T04:50:04.826Z,4.08
2019-03-24T04:54:13.432Z,4.36
2019-03-24T04:58:21.784Z,4.60
2019-03-24T05:02:30.726Z,4.91
2019-03-24T05:06:40.173Z,5.22
2019-03-24T05:10:48.407Z,5.33
2019-03-24T05:14:57.001Z,5.73
2019-03-24T05:19:05.329Z,6.26
2019-03-24T05:23:13.787Z,6.01
2019-03-24T05:27:22.498Z,6.29
2019-03-24T05:31:31.008Z,6.30
2019-03-24T05:35:39.671Z,6.86
2019-03-24T05:39:48.059Z,7.08
2019-03-24T05:43:56.292Z,7.95
2019-03-24T05:48:05.024Z,8.30
2019-03-24T05:52:13.248Z,8.85
2019-03-24T05:56:22.107Z,9.05
2019-03-24T06:00:30.932Z,9.41
2019-03-24T06:04:39.147Z,10.28
2019-03-24T06:08:47.769Z,10.10
2019-03-24T06:12:56.793Z,9.99
2019-03-24T06:17:05.030Z,10.08
2019-03-24T06:21:13.869Z,10.67
2019-03-24T06:25:22.799Z,11.48
2019-03-24T06:29:31.141Z,11.98
2019-03-24T06:33:39.758Z,12.39
2019-03-24T06:37:47.973Z,12.77
2019-03-24T06:41:56.846Z,13.24
2019-03-24T06:46:05.628Z,13.50
2019-03-24T06:50:14.109Z,13.45
2019-03-24T06:54:22.782Z,13.40
2019-03-24T06:58:31.722Z,12.98
2019-03-24T07:02:40.078Z,12.88
2019-03-24T07:06:48.868Z,13.91
2019-03-24T07:10:57.721Z,13.64
2019-03-24T07:15:06.181Z,14.23
2019-03-24T07:19:14.562Z,13.37
2019-03-24T07:23:22.801Z,13.40
2019-03-24T07:27:31.302Z,13.35
2019-03-24T07:31:40.069Z,14.40
2019-03-24T07:35:48.355Z,15.56
2019-03-24T07:39:56.778Z,15.20
2019-03-24T07:44:05.081Z,15.97
2019-03-24T07:48:19.027Z,16.23
2019-03-24T07:52:23.596Z,15.80
2019-03-24T07:56:32.546Z,17.14
2019-03-24T08:00:41.141Z,16.19
2019-03-24T08:04:49.389Z,17.06
2019-03-24T08:08:57.610Z,17.01
2019-03-24T08:13:06.945Z,17.10
2019-03-24T08:17:15.778Z,17.40
2019-03-24T08:21:24.100Z,17.12
2019-03-24T08:25:32.950Z,16.30
2019-03-24T08:29:41.254Z,16.61
2019-03-24T08:33:49.488Z,17.30
2019-03-24T08:37:57.797Z,17.30
2019-03-24T08:42:06.224Z,17.30
2019-03-24T08:46:14.957Z,17.10
2019-03-24T08:50:23.173Z,18.63
2019-03-24T08:54:31.399Z,18.05
2019-03-24T08:58:41.230Z,16.72
2019-03-24T09:02:49.499Z,17.50
2019-03-24T09:06:58.114Z,18.13
2019-03-24T09:11:06.745Z,17.50
2019-03-24T09:15:15.159Z,16.93
2019-03-24T09:19:23.777Z,18.00
2019-03-24T09:23:33.014Z,18.35
2019-03-24T09:27:41.671Z,17.38
2019-03-24T09:31:50.000Z,16.72
2019-03-24T09:35:58.507Z,16.72
2019-03-24T09:40:11.370Z,15.72
2019-03-24T09:44:20.188Z,16.16
2019-03-24T09:48:28.697Z,15.51
2019-03-24T09:52:37.134Z,15.58
2019-03-24T09:56:45.454Z,15.74
2019-03-24T10:00:53.771Z,16.39
2019-03-24T10:05:02.162Z,15.99
2019-03-24T10:09:11.836Z,16.11
2019-03-24T10:13:19.995Z,15.65
2019-03-24T10:17:29.197Z,16.82
2019-03-24T10:21:37.927Z,16.18
2019-03-24T10:25:46.497Z,16.45
2019-03-24T10:29:55.096Z,16.72
2019-03-24T10:34:04.230Z,16.04
2019-03-24T10:38:12.458Z,15.88
2019-03-24T10:42:21.187Z,16.18
2019-03-24T10:46:29.936Z,15.89
2019-03-24T10:50:38.114Z,15.67
2019-03-24T10:54:46.877Z,15.73
2019-03-24T10:58:55.233Z,16.43
2019-03-24T11:03:04.375Z,15.80
2019-03-24T11:07:12.953Z,16.04
2019-03-24T11:11:21.394Z,16.35
2019-03-24T11:15:30.027Z,16.14
2019-03-24T11:19:38.653Z,16.74
2019-03-24T11:23:47.142Z,15.54
2019-03-24T11:27:56.299Z,16.59
2019-03-24T11:32:04.831Z,16.38
2019-03-24T11:36:13.288Z,15.93
2019-03-24T11:40:22.002Z,16.69
2019-03-24T11:44:30.212Z,16.07
2019-03-24T11:48:39.041Z,15.69
2019-03-24T11:52:47.557Z,15.39
2019-03-24T11:56:55.919Z,15.25
2019-03-24T12:01:06.346Z,14.84
2019-03-24T12:05:15.277Z,14.74
2019-03-24T12:09:23.539Z,15.02
2019-03-24T12:13:31.980Z,15.60
2019-03-24T12:17:40.499Z,14.60
2019-03-24T12:21:48.829Z,14.93
2019-03-24T12:25:57.438Z,14.63
2019-03-24T12:30:06.659Z,14.77
2019-03-24T12:34:15.658Z,14.37
2019-03-24T12:38:24.345Z,15.57
2019-03-24T12:42:32.686Z,14.33
2019-03-24T12:46:40.978Z,14.07
2019-03-24T12:50:50.253Z,13.61
2019-03-24T12:54:58.191Z,13.87
2019-03-24T12:59:07.012Z,14.05
2019-03-24T13:03:15.786Z,13.10
2019-03-24T13:07:24.168Z,13.68
2019-03-24T13:11:32.940Z,13.20
2019-03-24T13:15:41.955Z,14.58
2019-03-24T13:19:50.299Z,14.43
2019-03-24T13:23:58.613Z,13.33
2019-03-24T13:28:07.057Z,13.24
2019-03-24T13:32:15.857Z,13.20
2019-03-24T13:36:24.228Z,13.92
2019-03-24T13:40:32.896Z,13.78
2019-03-24T13:44:41.761Z,12.91
2019-03-24T13:48:50.276Z,12.63
2019-03-24T13:52:58.423Z,12.53
2019-03-24T13:57:07.355Z,12.51
2019-03-24T14:01:16.001Z,12.38
2019-03-24T14:05:24.841Z,11.95
2019-03-24T14:09:33.154Z,11.73
2019-03-24T14:13:41.988Z,11.60
2019-03-24T14:17:50.743Z,11.71
2019-03-24T14:21:59.446Z,11.14
2019-03-24T14:26:07.774Z,11.41
2019-03-24T14:30:17.420Z,11.28
2019-03-24T14:34:26.062Z,10.84
2019-03-24T14:38:34.270Z,10.54
2019-03-24T14:42:42.703Z,10.39
2019-03-24T14:46:50.816Z,10.35
2019-03-24T14:50:59.059Z,10.15
2019-03-24T14:55:09.709Z,10.38
2019-03-24T14:59:18.054Z,10.44
2019-03-24T15:03:26.991Z,10.12
2019-03-24T15:07:35.908Z,9.98
2019-03-24T15:11:45.156Z,9.78
2019-03-24T15:15:53.496Z,9.79
2019-03-24T15:20:02.000Z,9.79
2019-03-24T15:24:10.117Z,9.82
2019-03-24T15:28:19.155Z,9.55
2019-03-24T15:32:27.372Z,9.42
2019-03-24T15:36:36.219Z,9.58
2019-03-24T15:40:44.855Z,9.50
2019-03-24T15:44:53.223Z,9.48
2019-03-24T15:49:01.680Z,9.20
2019-03-24T15:53:10.226Z,9.08
2019-03-24T15:57:18.438Z,9.10
2019-03-24T16:01:27.313Z,8.99
2019-03-24T16:05:35.609Z,8.93
2019-03-24T16:09:44.028Z,8.83
2019-03-24T16:13:52.778Z,8.82
2019-03-24T16:18:01.071Z,8.74
2019-03-24T16:22:09.817Z,8.70
2019-03-24T16:26:17.933Z,8.66
2019-03-24T16:30:26.850Z,8.50
2019-03-24T16:34:35.704Z,8.48
2019-03-24T16:38:48.919Z,8.59
2019-03-24T16:42:54.281Z,8.61
2019-03-24T16:47:02.825Z,8.44
2019-03-24T16:51:10.942Z,8.25
2019-03-24T16:55:19.359Z,8.11
2019-03-24T16:59:27.707Z,8.17
2019-03-24T17:03:36.411Z,8.16
2019-03-24T17:07:44.823Z,7.91
2019-03-24T17:11:53.045Z,8.24
2019-03-24T17:16:02.093Z,8.24
2019-03-24T17:20:11.664Z,7.91
2019-03-24T17:24:19.851Z,8.11
2019-03-24T17:28:28.484Z,8.11
2019-03-24T17:32:37.366Z,8.03
2019-03-24T17:36:45.645Z,7.89
2019-03-24T17:40:54.071Z,8.28
2019-03-24T17:45:02.387Z,8.23
2019-03-24T17:49:11.232Z,8.20
2019-03-24T17:53:19.739Z,8.07
2019-03-24T17:57:29.076Z,8.05
2019-03-24T18:01:38.876Z,7.64
2019-03-24T18:05:47.299Z,7.46
2019-03-24T18:09:55.714Z,7.38
2019-03-24T18:14:04.232Z,7.32
2019-03-24T18:18:12.667Z,7.42
2019-03-24T18:22:21.450Z,7.19
2019-03-24T18:26:29.839Z,6.99
2019-03-24T18:30:38.250Z,6.90
2019-03-24T18:34:48.983Z,6.88
2019-03-24T18:38:57.417Z,6.86
2019-03-24T18:43:06.468Z,6.83
2019-03-24T18:47:16.666Z,6.62
2019-03-24T18:51:27.587Z,6.58
2019-03-24T18:55:36.474Z,6.58
2019-03-24T18:59:45.317Z,6.45
2019-03-24T19:03:54.799Z,6.30
2019-03-24T19:08:03.442Z,6.52
2019-03-24T19:12:12.137Z,6.45
2019-03-24T19:16:20.508Z,6.44
2019-03-24T19:20:29.022Z,6.30
2019-03-24T19:24:37.087Z,6.19
2019-03-24T19:28:45.473Z,6.15
2019-03-24T19:32:53.932Z,6.21
2019-03-24T19:37:02.728Z,6.16
2019-03-24T19:41:11.188Z,5.99
2019-03-24T19:45:19.520Z,6.02
2019-03-24T19:49:27.716Z,6.03
2019-03-24T19:53:36.458Z,5.99
2019-03-24T19:57:47.396Z,5.96
2019-03-24T20:01:55.844Z,6.00
2019-03-24T20:06:04.292Z,5.92
2019-03-24T20:10:13.206Z,5.82
2019-03-24T20:14:23.897Z,5.81
2019-03-24T20:18:31.686Z,5.92
2019-03-24T20:22:40.048Z,5.70
2019-03-24T20:26:48.956Z,5.52
2019-03-24T20:30:58.010Z,4.97
2019-03-24T20:35:09.094Z,5.33
2019-03-24T20:39:18.025Z,5.38
2019-03-24T20:43:26.676Z,5.41
2019-03-24T20:47:34.992Z,5.36
2019-03-24T20:51:43.409Z,5.18
2019-03-24T20:55:51.729Z,5.33
2019-03-24T21:00:00.059Z,5.45
2019-03-24T21:04:08.481Z,5.35
2019-03-24T21:08:17.205Z,5.43
2019-03-24T21:12:25.626Z,5.28
2019-03-24T21:16:34.598Z,5.44
2019-03-24T21:20:43.061Z,5.47
2019-03-24T21:24:51.449Z,5.27
2019-03-24T21:29:01.545Z,5.25
2019-03-24T21:33:09.835Z,5.30
2019-03-24T21:37:18.818Z,4.67
2019-03-24T21:41:27.324Z,4.86
2019-03-24T21:45:35.753Z,4.98
2019-03-24T21:49:44.055Z,4.90
2019-03-24T21:53:52.424Z,5.02
2019-03-24T21:58:00.656Z,4.96
2019-03-24T22:02:09.441Z,5.19
2019-03-24T22:06:18.409Z,5.07
2019-03-24T22:10:26.955Z,5.03
2019-03-24T22:14:35.310Z,5.09
2019-03-24T22:18:43.668Z,5.14
2019-03-24T22:22:51.955Z,5.13
2019-03-24T22:27:00.818Z,5.00
2019-03-24T22:31:09.200Z,4.47
2019-03-24T22:35:17.584Z,4.60
2019-03-24T22:39:26.350Z,4.90
2019-03-24T22:43:34.624Z,4.96
2019-03-24T22:47:43.383Z,4.77
2019-03-24T22:51:51.701Z,4.73
2019-03-24T22:56:00.055Z,4.85
2019-03-24T23:00:15.004Z,4.91
2019-03-24T23:04:25.191Z,5.10
2019-03-24T23:08:33.449Z,5.02
2019-03-24T23:12:42.738Z,5.15
2019-03-24T23:16:51.279Z,5.19
2019-03-24T23:21:00.497Z,4.94
2019-03-24T23:25:09.223Z,4.78
2019-03-24T23:29:18.470Z,4.70
2019-03-24T23:33:26.927Z,4.64
2019-03-24T23:37:35.410Z,4.75
2019-03-24T23:41:44.708Z,4.87
2019-03-24T23:45:53.200Z,4.34
2019-03-24T23:50:02.030Z,4.37
2019-03-24T23:54:10.462Z,4.28
2019-03-24T23:58:19.271Z,4.54
